Time;durP1;ratioP1;P1;durP2;ratioP2;P2;SDS_P1;SDS_P2;PMS_P1;PMS_P2;Temp;Humidity;BMP_temperature;BMP_pressure;BME280_temperature;BME280_humidity;BME280_pressure;Samples;Min_cycle;Max_cycle;Signal;HPM_P1;HPM_P2
2023/12/23 00:01:01;;;;;;;;;;;;;;;8.77;71.79;97899.95;106209;1253;61245;-81
2023/12/23 00:03:34;;;;;;;;;;;;;;;8.80;71.79;97897.48;106421;1253;61351;-82
2023/12/23 00:06:09;;;;;;;;;;;;;;;8.77;71.67;97900.95;106263;1255;73436;-82
2023/12/23 00:08:36;;;;;;;;;;;;;;;8.89;70.81;97902.87;106190;1258;67193;-81
2023/12/23 00:11:16;;;;;;;;;;;;;;;8.81;70.80;97901.87;106301;1256;72782;-81
2023/12/23 00:13:56;;;;;;;;;;;;;;;8.63;71.77;97904.11;106179;1258;61252;-81
2023/12/23 00:16:28;;;;;;;;;;;;;;;8.59;71.92;97909.52;106148;1254;61308;-81
2023/12/23 00:19:01;;;;;;;;;;;;;;;8.60;71.89;97910.95;106238;1253;75843;-81
2023/12/23 00:21:35;;;;;;;;;;;;;;;8.61;71.59;97919.75;106245;1259;68521;-81
2023/12/23 00:24:09;;;;;;;;;;;;;;;8.61;71.44;97922.73;106331;1253;72683;-81
2023/12/23 00:26:36;;;;;;;;;;;;;;;8.67;70.79;97921.64;106239;1256;61244;-81
2023/12/23 00:29:10;;;;;;;;;;;;;;;8.63;70.47;97920.32;106319;1256;61362;-80
2023/12/23 00:31:51;;;;;;;;;;;;;;;8.61;70.40;97919.52;106306;1255;73398;-80
2023/12/23 00:34:31;;;;;;;;;;;;;;;8.57;70.19;97915.31;106122;1259;68436;-80
2023/12/23 00:37:12;;;;;;;;;;;;;;;8.54;70.56;97914.11;106154;1259;72684;-80
2023/12/23 00:39:51;;;;;;;;;;;;;;;8.61;69.88;97917.89;106316;1258;61221;-80
2023/12/23 00:42:31;;;;;;;;;;;;;;;8.61;69.72;97916.27;106178;1258;61272;-81
2023/12/23 00:45:11;;;;;;;;;;;;;;;8.49;70.53;97914.77;106273;1254;74629;-81
2023/12/23 00:47:50;;;;;;;;;;;;;;;8.56;70.09;97911.09;106244;1253;68336;-81
2023/12/23 00:50:31;;;;;;;;;;;;;;;8.59;69.51;97907.56;106404;1257;72772;-80
2023/12/23 00:53:10;;;;;;;;;;;;;;;8.50;70.17;97904.06;106491;1257;61447;-81
2023/12/23 00:55:50;;;;;;;;;;;;;;;8.47;70.26;97897.34;106451;1259;61140;-81
2023/12/23 00:58:30;;;;;;;;;;;;;;;8.60;69.83;97900.13;106382;1258;74817;-80
2023/12/23 01:01:09;;;;;;;;;;;;;;;8.60;69.24;97902.23;106434;1254;68561;-80
2023/12/23 01:03:49;;;;;;;;;;;;;;;8.45;69.93;97911.25;106131;1256;72732;-80
2023/12/23 01:06:29;;;;;;;;;;;;;;;8.22;71.31;97914.67;106170;1258;61368;-80
2023/12/23 01:09:08;;;;;;;;;;;;;;;8.13;72.36;97911.23;106381;1258;61333;-80
2023/12/23 01:11:48;;;;;;;;;;;;;;;8.20;72.09;97913.48;106266;1253;72470;-80
2023/12/23 01:14:28;;;;;;;;;;;;;;;8.19;72.17;97910.55;106283;1258;67185;-80
2023/12/23 01:17:07;;;;;;;;;;;;;;;8.12;73.01;97909.63;106260;1258;70439;-80
2023/12/23 01:19:47;;;;;;;;;;;;;;;8.16;73.10;97908.57;106156;1258;62043;-80
2023/12/23 01:22:27;;;;;;;;;;;;;;;8.25;72.86;97903.32;106248;1253;60134;-80
2023/12/23 01:25:06;;;;;;;;;;;;;;;8.29;72.68;97898.92;106617;1254;73772;-80
2023/12/23 01:27:46;;;;;;;;;;;;;;;8.25;72.90;97896.79;106328;1254;68486;-80
2023/12/23 01:30:26;;;;;;;;;;;;;;;8.23;73.09;97898.36;106286;1254;72677;-80
2023/12/23 01:33:07;;;;;;;;;;;;;;;8.31;72.87;97899.55;106256;1259;61402;-81
2023/12/23 01:35:49;;;;;;;;;;;;;;;8.26;73.14;97900.51;106324;1260;61196;-81
2023/12/23 01:38:29;;;;;;;;;;;;;;;8.22;73.10;97898.17;106250;1259;75009;-80
2023/12/23 01:41:09;;;;;;;;;;;;;;;8.01;74.75;97893.90;106144;1256;68839;-81
2023/12/23 01:43:50;;;;;;;;;;;;;;;8.07;74.57;97888.15;106357;1259;71412;-80
2023/12/23 01:46:30;;;;;;;;;;;;;;;8.01;74.75;97882.69;106291;1258;61224;-80
2023/12/23 01:49:10;;;;;;;;;;;;;;;8.02;74.55;97886.41;106274;1258;61253;-80
2023/12/23 01:51:49;;;;;;;;;;;;;;;8.07;74.00;97891.73;106478;1258;74674;-80
2023/12/23 01:54:29;;;;;;;;;;;;;;;8.15;72.89;97885.85;106461;1260;67164;-80
2023/12/23 01:57:03;;;;;;;;;;;;;;;8.06;73.29;97884.86;106437;1255;71373;-80
2023/12/23 01:59:36;;;;;;;;;;;;;;;8.05;73.51;97883.48;106217;1260;61271;-80
2023/12/23 02:02:10;;;;;;;;;;;;;;;7.96;73.99;97886.30;106384;1260;61232;-80
2023/12/23 02:04:44;;;;;;;;;;;;;;;7.96;73.96;97886.90;106087;1260;74678;-80
2023/12/23 02:07:20;;;;;;;;;;;;;;;7.94;73.57;97886.67;106108;1258;68736;-80
2023/12/23 02:09:53;;;;;;;;;;;;;;;7.98;72.75;97883.05;106298;1257;72600;-80
2023/12/23 02:12:50;;;;;;;;;;;;;;;7.95;72.58;97886.79;106452;1255;61428;-80
2023/12/23 02:15:42;;;;;;;;;;;;;;;7.95;72.53;97885.73;106311;1255;60011;-81
2023/12/23 02:18:16;;;;;;;;;;;;;;;7.96;72.42;97881.69;106280;1255;73187;-80
2023/12/23 02:20:50;;;;;;;;;;;;;;;7.93;72.58;97881.92;106223;1259;68722;-80
2023/12/23 02:23:25;;;;;;;;;;;;;;;8.04;71.88;97879.92;106258;1259;72972;-80
2023/12/23 02:26:00;;;;;;;;;;;;;;;8.02;71.77;97875.66;106202;1258;61341;-80
2023/12/23 02:28:33;;;;;;;;;;;;;;;8.06;71.73;97883.06;106238;1258;61323;-80
2023/12/23 02:31:09;;;;;;;;;;;;;;;8.11;71.74;97883.10;106233;1259;74633;-80
2023/12/23 02:33:43;;;;;;;;;;;;;;;8.18;71.03;97886.36;105993;1255;67387;-80
2023/12/23 02:36:21;;;;;;;;;;;;;;;8.20;70.67;97884.33;106199;1258;71779;-81
2023/12/23 02:38:55;;;;;;;;;;;;;;;8.08;71.27;97880.88;106299;1254;61289;-80
2023/12/23 02:41:30;;;;;;;;;;;;;;;7.93;72.31;97877.16;106208;1259;61396;-80
2023/12/23 02:44:04;;;;;;;;;;;;;;;7.89;72.71;97877.15;106290;1261;74656;-80
2023/12/23 02:46:37;;;;;;;;;;;;;;;7.90;72.60;97875.31;106261;1259;68431;-80
2023/12/23 02:49:11;;;;;;;;;;;;;;;7.92;72.46;97878.89;106514;1259;72629;-80
2023/12/23 02:51:45;;;;;;;;;;;;;;;7.96;71.67;97877.52;106379;1254;61334;-80
2023/12/23 02:54:18;;;;;;;;;;;;;;;7.95;71.45;97872.04;106358;1259;61204;-80
2023/12/23 02:56:52;;;;;;;;;;;;;;;7.98;71.32;97872.86;106361;1254;73396;-80
2023/12/23 02:59:26;;;;;;;;;;;;;;;7.96;71.00;97872.06;106339;1258;67279;-80
2023/12/23 03:01:59;;;;;;;;;;;;;;;7.96;70.90;97868.03;106414;1255;72670;-80
2023/12/23 03:04:34;;;;;;;;;;;;;;;8.10;70.15;97870.86;106511;1256;61388;-80
2023/12/23 03:07:08;;;;;;;;;;;;;;;8.08;69.84;97870.07;106287;1256;61411;-80
2023/12/23 03:09:42;;;;;;;;;;;;;;;8.06;69.94;97868.91;106454;1258;74055;-80
2023/12/23 03:12:16;;;;;;;;;;;;;;;8.13;69.28;97869.67;106133;1259;68226;-80
2023/12/23 03:14:49;;;;;;;;;;;;;;;8.17;68.67;97870.55;106062;1254;72723;-80
2023/12/23 03:17:25;;;;;;;;;;;;;;;8.21;68.23;97875.10;106185;1258;61235;-80
2023/12/23 03:19:59;;;;;;;;;;;;;;;8.34;66.97;97877.02;106180;1254;61333;-81
2023/12/23 03:22:33;;;;;;;;;;;;;;;8.34;66.46;97884.30;106194;1258;73591;-81
2023/12/23 03:25:06;;;;;;;;;;;;;;;8.32;66.15;97891.27;106201;1259;67130;-80
2023/12/23 03:27:40;;;;;;;;;;;;;;;8.41;65.44;97893.90;106324;1253;72788;-81
2023/12/23 03:30:14;;;;;;;;;;;;;;;8.31;65.51;97897.77;106326;1259;61301;-81
2023/12/23 03:32:48;;;;;;;;;;;;;;;8.29;65.41;97896.27;106384;1260;61143;-80
2023/12/23 03:35:22;;;;;;;;;;;;;;;8.21;65.51;97897.28;106377;1257;74721;-81
2023/12/23 03:37:56;;;;;;;;;;;;;;;8.15;65.44;97897.27;106311;1254;68735;-81
2023/12/23 03:40:29;;;;;;;;;;;;;;;8.04;65.68;97893.54;106327;1257;71265;-80
2023/12/23 03:43:03;;;;;;;;;;;;;;;8.06;65.44;97893.53;106301;1255;61321;-81
2023/12/23 03:45:38;;;;;;;;;;;;;;;8.30;64.05;97897.00;106236;1254;61276;-81
2023/12/23 03:48:12;;;;;;;;;;;;;;;8.30;63.52;97897.31;106440;1254;75144;-81
2023/12/23 03:50:46;;;;;;;;;;;;;;;8.33;63.14;97896.74;106305;1255;68401;-80
2023/12/23 03:53:20;;;;;;;;;;;;;;;7.66;65.79;97903.19;106609;1254;72686;-81
2023/12/23 03:55:53;;;;;;;;;;;;;;;7.26;69.05;97905.48;106435;1254;61973;-80
2023/12/23 03:58:27;;;;;;;;;;;;;;;7.28;69.51;97907.11;106147;1261;61168;-81
2023/12/23 04:01:01;;;;;;;;;;;;;;;7.27;69.39;97906.37;106194;1260;74671;-81
2023/12/23 04:03:34;;;;;;;;;;;;;;;7.29;69.62;97906.68;106235;1257;67512;-81
2023/12/23 04:06:11;;;;;;;;;;;;;;;7.42;69.34;97909.34;106419;1254;72684;-81
2023/12/23 04:08:45;;;;;;;;;;;;;;;7.51;68.62;97912.15;106515;1256;61145;-81
2023/12/23 04:11:19;;;;;;;;;;;;;;;7.40;69.22;97909.63;106228;1253;61426;-81
2023/12/23 04:13:53;;;;;;;;;;;;;;;7.33;70.01;97909.45;106114;1255;77329;-80
2023/12/23 04:16:26;;;;;;;;;;;;;;;7.37;69.97;97907.52;106484;1259;67635;-80
2023/12/23 04:19:00;;;;;;;;;;;;;;;7.45;69.64;97905.00;106359;1254;71696;-80
2023/12/23 04:21:35;;;;;;;;;;;;;;;7.26;70.67;97901.61;106251;1254;61283;-80
2023/12/23 04:24:08;;;;;;;;;;;;;;;7.30;70.87;97904.17;106208;1259;61916;-80
2023/12/23 04:26:42;;;;;;;;;;;;;;;7.40;70.47;97902.60;106213;1254;76761;-80
2023/12/23 04:29:16;;;;;;;;;;;;;;;7.31;71.13;97902.13;106240;1255;67430;-80
2023/12/23 04:31:52;;;;;;;;;;;;;;;7.19;72.41;97907.88;106381;1260;72724;-80
2023/12/23 04:34:32;;;;;;;;;;;;;;;7.19;72.47;97908.58;106366;1254;61270;-80
2023/12/23 04:37:12;;;;;;;;;;;;;;;7.18;72.85;97907.69;106132;1259;61301;-80
2023/12/23 04:39:39;;;;;;;;;;;;;;;7.30;72.07;97908.86;106384;1259;74616;-81
2023/12/23 04:42:13;;;;;;;;;;;;;;;7.33;71.92;97905.41;106112;1254;68414;-80
2023/12/23 04:44:47;;;;;;;;;;;;;;;7.39;71.88;97902.77;106410;1254;72734;-80
2023/12/23 04:47:20;;;;;;;;;;;;;;;7.59;70.48;97907.06;106237;1254;61231;-80
2023/12/23 04:49:48;;;;;;;;;;;;;;;7.58;70.38;97905.79;106253;1254;61292;-80
2023/12/23 04:52:22;;;;;;;;;;;;;;;7.68;69.47;97908.58;106540;1258;74757;-80
2023/12/23 04:55:05;;;;;;;;;;;;;;;7.80;68.57;97907.22;106453;1254;67447;-80
2023/12/23 04:57:39;;;;;;;;;;;;;;;7.70;68.80;97909.13;106363;1257;71500;-80
2023/12/23 05:00:13;;;;;;;;;;;;;;;7.68;69.16;97909.95;106233;1259;61281;-80
2023/12/23 05:02:46;;;;;;;;;;;;;;;7.64;69.48;97914.83;106317;1254;59324;-81
2023/12/23 05:05:21;;;;;;;;;;;;;;;7.70;69.28;97915.59;106481;1257;75097;-80
2023/12/23 05:07:55;;;;;;;;;;;;;;;7.84;68.02;97918.56;106271;1260;67149;-80
2023/12/23 05:10:28;;;;;;;;;;;;;;;7.70;68.69;97923.39;106341;1256;71478;-80
2023/12/23 05:13:02;;;;;;;;;;;;;;;7.71;68.80;97926.32;106355;1254;61191;-80
2023/12/23 05:15:37;;;;;;;;;;;;;;;7.80;68.52;97925.70;106285;1254;61245;-80
2023/12/23 05:18:12;;;;;;;;;;;;;;;7.72;69.31;97928.15;106463;1254;74658;-80
2023/12/23 05:20:46;;;;;;;;;;;;;;;7.78;68.91;97921.94;106357;1260;66142;-80
2023/12/23 05:23:19;;;;;;;;;;;;;;;7.87;68.75;97927.45;106251;1258;71505;-80
2023/12/23 05:25:54;;;;;;;;;;;;;;;7.90;68.09;97924.83;106312;1254;61336;-80
2023/12/23 05:28:34;;;;;;;;;;;;;;;7.94;68.00;97922.33;106251;1255;61383;-80
2023/12/23 05:31:11;;;;;;;;;;;;;;;8.20;66.37;97927.84;106331;1254;74760;-81
2023/12/23 05:33:55;;;;;;;;;;;;;;;8.24;65.74;97928.80;106437;1259;67142;-80
2023/12/23 05:36:35;;;;;;;;;;;;;;;8.09;66.10;97934.24;106200;1257;71457;-80
2023/12/23 05:39:10;;;;;;;;;;;;;;;8.03;66.44;97942.74;106346;1254;61635;-80
2023/12/23 05:41:43;;;;;;;;;;;;;;;8.00;66.73;97946.59;106467;1254;60013;-80
2023/12/23 05:44:23;;;;;;;;;;;;;;;8.02;66.27;97948.70;106196;1254;74640;-80
2023/12/23 05:47:03;;;;;;;;;;;;;;;8.05;65.86;97950.71;106429;1260;67141;-80
2023/12/23 05:49:37;;;;;;;;;;;;;;;8.17;64.95;97953.31;106262;1260;72680;-80
2023/12/23 05:52:10;;;;;;;;;;;;;;;8.20;64.58;97948.91;106463;1254;61287;-80
2023/12/23 05:54:50;;;;;;;;;;;;;;;8.01;65.08;97945.02;106491;1253;61323;-80
2023/12/23 05:57:30;;;;;;;;;;;;;;;7.97;65.12;97955.08;106446;1259;73465;-81
2023/12/23 06:00:05;;;;;;;;;;;;;;;7.70;66.84;97954.25;106227;1260;67256;-80
2023/12/23 06:02:46;;;;;;;;;;;;;;;7.52;68.16;97956.62;106254;1260;71605;-79
2023/12/23 06:05:20;;;;;;;;;;;;;;;7.18;70.99;97954.55;106293;1254;61237;-80
2023/12/23 06:07:48;;;;;;;;;;;;;;;7.11;72.47;97951.64;106242;1254;61285;-80
2023/12/23 06:10:22;;;;;;;;;;;;;;;7.16;72.56;97950.59;106396;1255;73421;-80
2023/12/23 06:12:50;;;;;;;;;;;;;;;7.28;72.50;97950.22;106353;1257;67585;-80
2023/12/23 06:15:24;;;;;;;;;;;;;;;7.29;72.82;97952.04;106263;1258;71426;-80
2023/12/23 06:18:03;;;;;;;;;;;;;;;7.39;72.43;97952.52;106223;1259;61122;-80
2023/12/23 06:20:31;;;;;;;;;;;;;;;7.44;72.53;97964.67;106333;1253;61329;-80
2023/12/23 06:23:05;;;;;;;;;;;;;;;7.59;71.83;97969.06;106462;1254;74731;-80
2023/12/23 06:25:39;;;;;;;;;;;;;;;7.64;72.05;97969.34;106380;1254;67452;-80
2023/12/23 06:28:13;;;;;;;;;;;;;;;7.51;73.26;97971.74;106282;1259;72717;-80
2023/12/23 06:30:40;;;;;;;;;;;;;;;7.70;73.04;97969.91;106188;1254;61321;-80
2023/12/23 06:33:08;;;;;;;;;;;;;;;7.85;72.84;97967.60;106529;1254;61376;-80
2023/12/23 06:35:42;;;;;;;;;;;;;;;8.02;72.55;97965.23;106266;1254;76222;-81
2023/12/23 06:38:09;;;;;;;;;;;;;;;8.14;72.70;97964.90;106251;1254;69324;-80
2023/12/23 06:40:43;;;;;;;;;;;;;;;8.32;71.79;97970.16;106280;1253;72689;-81
2023/12/23 06:43:23;;;;;;;;;;;;;;;8.44;71.46;97973.27;106494;1253;61272;-81
2023/12/23 06:46:23;;;;;;;;;;;;;;;8.46;72.19;97981.45;106411;1258;61290;-81
2023/12/23 06:48:57;;;;;;;;;;;;;;;8.67;71.46;97987.04;106462;1253;73811;-81
2023/12/23 06:51:30;;;;;;;;;;;;;;;8.86;70.93;97991.37;106493;1254;68443;-82
2023/12/23 06:54:11;;;;;;;;;;;;;;;8.99;70.43;97986.52;106665;1253;72703;-82
2023/12/23 06:56:50;;;;;;;;;;;;;;;9.12;69.76;97991.63;106970;1258;61160;-82
2023/12/23 06:59:24;;;;;;;;;;;;;;;9.18;69.80;97992.10;106659;1257;61304;-81
2023/12/23 07:01:58;;;;;;;;;;;;;;;9.23;69.96;97992.75;106580;1256;73114;-82
2023/12/23 07:04:37;;;;;;;;;;;;;;;9.33;69.87;97991.53;106515;1253;69379;-82
2023/12/23 07:07:17;;;;;;;;;;;;;;;9.49;69.28;97993.49;106470;1254;72709;-82
2023/12/23 07:09:50;;;;;;;;;;;;;;;9.55;69.08;97992.48;106424;1253;61334;-82
2023/12/23 07:12:30;;;;;;;;;;;;;;;9.54;69.74;97991.12;106481;1254;61267;-82
2023/12/23 07:14:59;;;;;;;;;;;;;;;9.42;70.80;97994.58;106588;1254;73482;-82
2023/12/23 07:17:37;;;;;;;;;;;;;;;9.65;69.92;97996.08;106566;1253;68540;-82
2023/12/23 07:20:14;;;;;;;;;;;;;;;9.83;68.77;98002.02;106507;1254;71341;-82
2023/12/23 07:22:48;;;;;;;;;;;;;;;9.96;68.31;98004.90;106344;1254;61435;-81
2023/12/23 07:25:22;;;;;;;;;;;;;;;9.96;67.19;98010.27;106421;1254;61132;-82
2023/12/23 07:28:02;;;;;;;;;;;;;;;9.94;66.34;98011.70;106312;1254;73442;-85
2023/12/23 07:30:44;;;;;;;;;;;;;;;9.99;65.70;98013.66;106535;1253;68483;-84
2023/12/23 07:33:12;;;;;;;;;;;;;;;10.10;64.51;98008.30;106495;1254;73218;-84
2023/12/23 07:35:46;;;;;;;;;;;;;;;10.16;64.14;98008.89;106436;1254;61342;-84
2023/12/23 07:38:26;;;;;;;;;;;;;;;10.21;62.84;98008.68;106450;1258;61262;-84
2023/12/23 07:41:00;;;;;;;;;;;;;;;10.30;63.10;98010.51;106470;1253;74690;-84
2023/12/23 07:43:28;;;;;;;;;;;;;;;10.37;63.56;98008.86;106611;1254;67400;-84
2023/12/23 07:46:02;;;;;;;;;;;;;;;10.63;62.03;98007.27;106639;1258;71388;-84
2023/12/23 07:48:35;;;;;;;;;;;;;;;10.71;61.50;98009.84;106448;1257;61500;-84
2023/12/23 07:51:10;;;;;;;;;;;;;;;10.78;60.57;98009.47;106448;1253;61119;-84
2023/12/23 07:53:43;;;;;;;;;;;;;;;10.77;60.48;98016.12;106773;1253;73838;-83
2023/12/23 07:56:17;;;;;;;;;;;;;;;10.83;60.34;98016.34;106567;1253;67110;-82
2023/12/23 07:58:57;;;;;;;;;;;;;;;10.80;61.17;98014.05;106478;1254;72640;-85
2023/12/23 08:01:37;;;;;;;;;;;;;;;10.86;61.30;98015.02;106406;1257;61383;-84
2023/12/23 08:04:18;;;;;;;;;;;;;;;11.01;60.86;98016.05;106430;1253;61199;-84
2023/12/23 08:06:57;;;;;;;;;;;;;;;11.18;59.19;98012.70;106454;1254;73481;-85
2023/12/23 08:09:37;;;;;;;;;;;;;;;11.28;58.64;98015.19;106524;1253;69081;-83
2023/12/23 08:12:16;;;;;;;;;;;;;;;11.33;58.52;98010.90;106626;1257;71417;-83
2023/12/23 08:14:56;;;;;;;;;;;;;;;11.11;57.92;98014.50;107212;1254;61307;-83
2023/12/23 08:17:36;;;;;;;;;;;;;;;10.80;59.20;98021.69;106902;1253;61301;-83
2023/12/23 08:20:15;;;;;;;;;;;;;;;10.75;59.60;98018.50;106494;1253;173714;-84
2023/12/23 08:22:48;;;;;;;;;;;;;;;10.69;58.48;98020.42;106742;1258;68363;-83
2023/12/23 08:25:22;;;;;;;;;;;;;;;10.65;58.15;98024.80;106923;1253;73226;-83
2023/12/23 08:27:56;;;;;;;;;;;;;;;10.61;58.25;98025.38;106553;1254;61262;-83
2023/12/23 08:30:30;;;;;;;;;;;;;;;10.64;58.29;98021.88;106586;1253;61225;-83
2023/12/23 12:33:21;;;;;;;;;;;;;;;11.27;57.40;98084.90;106538;1253;68397;-82
2023/12/23 12:36:01;;;;;;;;;;;;;;;11.10;57.76;98089.69;106418;1254;72955;-88
2023/12/23 12:38:41;;;;;;;;;;;;;;;11.07;57.71;98094.20;106488;1254;61309;-87
2023/12/23 12:41:21;;;;;;;;;;;;;;;10.96;58.36;98093.20;106496;1253;61151;-88
2023/12/23 12:44:01;;;;;;;;;;;;;;;11.10;57.96;98090.05;106452;1255;73469;-88
2023/12/23 12:46:41;;;;;;;;;;;;;;;11.23;57.61;98091.42;106403;1258;66325;-88
2023/12/23 12:49:23;;;;;;;;;;;;;;;11.19;57.40;98089.27;106327;1255;72651;-81
2023/12/23 12:52:03;;;;;;;;;;;;;;;11.12;57.37;98090.32;106406;1258;61229;-87
2023/12/23 12:54:43;;;;;;;;;;;;;;;11.15;57.00;98089.70;106748;1253;61362;-82
2023/12/23 12:57:22;;;;;;;;;;;;;;;11.21;56.74;98096.45;106586;1253;74647;-82
2023/12/23 13:00:07;;;;;;;;;;;;;;;11.26;56.57;98103.14;106299;1253;67965;-82
2023/12/23 13:02:47;;;;;;;;;;;;;;;11.12;56.55;98108.55;106317;1258;72706;-82
2023/12/23 13:05:27;;;;;;;;;;;;;;;10.95;57.26;98109.71;106425;1255;61347;-82
2023/12/23 13:08:07;;;;;;;;;;;;;;;10.89;57.49;98111.16;106489;1256;61325;-82
2023/12/23 13:10:47;;;;;;;;;;;;;;;10.76;57.71;98108.44;106278;1255;74616;-82
2023/12/23 13:13:26;;;;;;;;;;;;;;;10.63;57.88;98116.12;106626;1253;68874;-82
2023/12/23 13:16:06;;;;;;;;;;;;;;;10.58;58.24;98114.59;106385;1253;72658;-82
2023/12/23 13:18:46;;;;;;;;;;;;;;;10.55;58.16;98117.15;106440;1256;61353;-82
2023/12/23 13:21:37;;;;;;;;;;;;;;;10.54;58.44;98118.73;106334;1253;61307;-82
2023/12/23 13:24:17;;;;;;;;;;;;;;;10.55;58.26;98121.84;106276;1253;73777;-82
2023/12/23 13:26:57;;;;;;;;;;;;;;;10.50;58.49;98121.58;106368;1253;67458;-83
2023/12/23 13:29:37;;;;;;;;;;;;;;;10.55;58.07;98123.33;106451;1253;72986;-83
2023/12/23 13:32:17;;;;;;;;;;;;;;;10.54;58.27;98128.96;106425;1258;61670;-82
2023/12/23 13:34:57;;;;;;;;;;;;;;;10.40;58.40;98135.41;106530;1253;61395;-82
2023/12/23 13:37:37;;;;;;;;;;;;;;;10.48;58.08;98139.74;106317;1253;73055;-82
2023/12/23 13:40:17;;;;;;;;;;;;;;;10.43;58.17;98140.43;106393;1258;67453;-82
2023/12/23 13:42:56;;;;;;;;;;;;;;;10.35;58.35;98142.61;106327;1254;72751;-82
2023/12/23 13:45:36;;;;;;;;;;;;;;;10.01;59.56;98141.59;106335;1253;61327;-82
2023/12/23 13:48:16;;;;;;;;;;;;;;;9.91;60.25;98140.45;106449;1253;61320;-82
2023/12/23 13:50:55;;;;;;;;;;;;;;;9.62;61.65;98136.02;106298;1254;74687;-82
2023/12/23 13:53:35;;;;;;;;;;;;;;;9.51;62.33;98138.61;106599;1253;68445;-82
2023/12/23 13:56:09;;;;;;;;;;;;;;;9.46;62.43;98145.27;107184;1254;71861;-82
2023/12/23 13:58:43;;;;;;;;;;;;;;;9.29;63.21;98150.56;106540;1253;61340;-82
2023/12/23 14:01:16;;;;;;;;;;;;;;;9.06;64.77;98155.79;106380;1253;61230;-82
2023/12/23 14:03:50;;;;;;;;;;;;;;;9.06;65.41;98154.70;106331;1255;73476;-83
2023/12/23 14:06:23;;;;;;;;;;;;;;;9.02;66.04;98159.58;106338;1254;68718;-82
2023/12/23 14:08:57;;;;;;;;;;;;;;;9.02;66.43;98154.14;106270;1255;71841;-82
2023/12/23 14:11:31;;;;;;;;;;;;;;;8.95;66.89;98159.77;106200;1254;61353;-82
2023/12/23 14:14:05;;;;;;;;;;;;;;;8.96;66.94;98163.86;106309;1253;60602;-83
2023/12/23 14:16:38;;;;;;;;;;;;;;;8.93;66.99;98168.20;106468;1258;74628;-82
2023/12/23 14:19:12;;;;;;;;;;;;;;;8.95;66.94;98166.77;106321;1258;67248;-82
2023/12/23 14:21:46;;;;;;;;;;;;;;;8.91;67.11;98165.89;106352;1258;71372;-82
2023/12/23 14:24:20;;;;;;;;;;;;;;;8.92;67.27;98169.98;106414;1253;61201;-82
2023/12/23 14:26:54;;;;;;;;;;;;;;;8.92;67.22;98169.38;106387;1253;61412;-82
2023/12/23 14:29:27;;;;;;;;;;;;;;;8.77;68.31;98171.06;106283;1258;73484;-82
2023/12/23 14:32:01;;;;;;;;;;;;;;;8.74;69.05;98174.89;106417;1258;68714;-82
2023/12/23 14:34:35;;;;;;;;;;;;;;;8.83;69.15;98171.05;106287;1253;72750;-82
2023/12/23 14:37:09;;;;;;;;;;;;;;;8.77;69.48;98173.38;106367;1255;61218;-82
2023/12/23 14:39:43;;;;;;;;;;;;;;;8.62;70.74;98172.88;106388;1254;61244;-83
2023/12/23 14:42:17;;;;;;;;;;;;;;;8.58;71.48;98175.44;106493;1254;73563;-82
2023/12/23 14:44:51;;;;;;;;;;;;;;;8.60;71.63;98174.59;106286;1256;67936;-83
2023/12/23 14:47:25;;;;;;;;;;;;;;;8.59;71.93;98174.94;106225;1254;72709;-82
2023/12/23 14:49:58;;;;;;;;;;;;;;;8.72;71.21;98181.05;106295;1253;61209;-82
2023/12/23 14:52:32;;;;;;;;;;;;;;;8.57;72.28;98182.30;106492;1253;61255;-82
2023/12/23 14:55:06;;;;;;;;;;;;;;;8.66;72.26;98185.56;107144;1253;73709;-83
2023/12/23 14:57:39;;;;;;;;;;;;;;;8.75;71.88;98198.72;106584;1253;67961;-82
2023/12/23 15:00:15;;;;;;;;;;;;;;;8.81;71.50;98204.92;106286;1256;72742;-82
2023/12/23 15:02:49;;;;;;;;;;;;;;;9.03;70.31;98211.16;106275;1255;62078;-87
2023/12/23 15:05:23;;;;;;;;;;;;;;;9.38;67.34;98214.04;106455;1252;61307;-81
2023/12/23 15:07:57;;;;;;;;;;;;;;;9.38;66.40;98206.09;106283;1254;73366;-85
2023/12/23 15:10:30;;;;;;;;;;;;;;;9.36;65.50;98197.43;106477;1253;68350;-85
2023/12/23 15:13:06;;;;;;;;;;;;;;;9.28;65.64;98201.56;106357;1254;72321;-80
2023/12/23 15:15:40;;;;;;;;;;;;;;;9.29;65.55;98202.46;106308;1258;61353;-80
2023/12/23 15:18:14;;;;;;;;;;;;;;;9.26;65.54;98204.04;106364;1253;62012;-80
2023/12/23 15:20:47;;;;;;;;;;;;;;;9.21;65.66;98207.58;106340;1258;74635;-81
2023/12/23 15:23:21;;;;;;;;;;;;;;;9.13;65.81;98198.71;106478;1253;68553;-86
2023/12/23 15:25:55;;;;;;;;;;;;;;;9.07;65.76;98200.91;106340;1258;72467;-86
2023/12/23 15:28:29;;;;;;;;;;;;;;;8.94;65.96;98203.84;106336;1258;61355;-86
2023/12/23 15:31:02;;;;;;;;;;;;;;;8.69;67.64;98210.92;106337;1253;61443;-81
2023/12/23 15:33:36;;;;;;;;;;;;;;;8.57;68.68;98208.94;106402;1253;75156;-86
2023/12/23 15:36:12;;;;;;;;;;;;;;;8.50;69.77;98217.30;106313;1258;68342;-86
2023/12/23 15:38:46;;;;;;;;;;;;;;;8.53;70.30;98215.60;106350;1253;72717;-86
2023/12/23 15:41:20;;;;;;;;;;;;;;;8.46;71.34;98211.98;106291;1256;61334;-81
2023/12/23 15:43:53;;;;;;;;;;;;;;;8.64;71.16;98216.05;106506;1258;61343;-81
2023/12/23 15:46:27;;;;;;;;;;;;;;;8.74;70.73;98218.02;106449;1255;75249;-82
2023/12/23 15:49:01;;;;;;;;;;;;;;;8.72;70.88;98220.80;106463;1253;68504;-82
2023/12/23 15:51:35;;;;;;;;;;;;;;;8.91;69.68;98223.28;106509;1253;72615;-86
2023/12/23 15:54:11;;;;;;;;;;;;;;;9.04;69.06;98225.05;106563;1257;62575;-83
2023/12/23 15:56:45;;;;;;;;;;;;;;;9.49;66.33;98223.36;106812;1253;62387;-83
2023/12/23 15:59:19;;;;;;;;;;;;;;;9.45;65.53;98230.68;106405;1258;76181;-83
2023/12/23 16:01:53;;;;;;;;;;;;;;;9.57;65.30;98231.64;106312;1253;69222;-83
2023/12/23 16:04:28;;;;;;;;;;;;;;;9.67;64.17;98226.37;106325;1256;72708;-83
2023/12/23 16:07:02;;;;;;;;;;;;;;;9.73;63.70;98221.60;106281;1255;61154;-82
2023/12/23 16:09:36;;;;;;;;;;;;;;;9.74;63.81;98225.16;106246;1256;61106;-83
2023/12/23 16:12:09;;;;;;;;;;;;;;;9.62;64.17;98221.86;106313;1253;74716;-83
2023/12/23 16:14:44;;;;;;;;;;;;;;;9.66;64.09;98218.30;106351;1253;68777;-83
2023/12/23 16:17:18;;;;;;;;;;;;;;;9.72;63.60;98225.62;106444;1253;72720;-83
2023/12/23 16:19:52;;;;;;;;;;;;;;;9.71;63.46;98225.43;106349;1253;61230;-83
2023/12/23 16:22:26;;;;;;;;;;;;;;;9.64;63.59;98227.47;106230;1255;61933;-82
2023/12/23 16:25:00;;;;;;;;;;;;;;;9.71;63.15;98226.54;106396;1258;75574;-83
2023/12/23 16:27:34;;;;;;;;;;;;;;;9.64;63.13;98224.08;106285;1253;68415;-83
2023/12/23 16:30:08;;;;;;;;;;;;;;;9.48;64.05;98219.03;106459;1258;71647;-83
2023/12/23 16:32:50;;;;;;;;;;;;;;;9.47;64.22;98220.41;106546;1253;61366;-83
2023/12/23 16:35:32;;;;;;;;;;;;;;;9.53;63.76;98220.39;106363;1255;60046;-82
2023/12/23 16:38:12;;;;;;;;;;;;;;;9.60;63.19;98213.98;106255;1258;74275;-82
2023/12/23 16:40:52;;;;;;;;;;;;;;;9.56;63.09;98215.77;106345;1253;68572;-82
2023/12/23 16:43:19;;;;;;;;;;;;;;;9.52;62.82;98213.91;106431;1257;71582;-82
2023/12/23 16:45:59;;;;;;;;;;;;;;;9.57;62.45;98213.25;106535;1259;61354;-82
2023/12/23 16:48:27;;;;;;;;;;;;;;;9.62;61.67;98215.96;106354;1255;61332;-82
2023/12/23 16:51:07;;;;;;;;;;;;;;;9.55;61.48;98218.95;106362;1256;74696;-82
2023/12/23 16:53:35;;;;;;;;;;;;;;;9.43;61.42;98217.98;106420;1253;68757;-81
2023/12/23 16:56:05;;;;;;;;;;;;;;;9.35;61.68;98219.81;106423;1253;73271;-82
2023/12/23 16:58:40;;;;;;;;;;;;;;;9.37;61.52;98216.35;106457;1259;61316;-82
2023/12/23 17:01:14;;;;;;;;;;;;;;;9.38;61.11;98213.97;106179;1258;61160;-81
2023/12/23 17:03:47;;;;;;;;;;;;;;;9.31;61.45;98213.90;106119;1256;73381;-82
2023/12/23 17:06:21;;;;;;;;;;;;;;;9.40;61.06;98215.19;106159;1253;68374;-82
2023/12/23 17:08:55;;;;;;;;;;;;;;;9.39;60.81;98214.45;106222;1258;72260;-82
2023/12/23 17:11:29;;;;;;;;;;;;;;;9.40;60.47;98210.92;106318;1256;63181;-81
2023/12/23 17:14:09;;;;;;;;;;;;;;;9.36;60.63;98217.30;106239;1258;61137;-82
2023/12/23 17:16:48;;;;;;;;;;;;;;;9.24;60.85;98224.04;106300;1255;75725;-81
2023/12/23 17:19:26;;;;;;;;;;;;;;;9.32;60.67;98225.46;106406;1256;67305;-82
2023/12/23 17:22:00;;;;;;;;;;;;;;;9.47;59.81;98228.53;106231;1253;74558;-82
2023/12/23 17:24:35;;;;;;;;;;;;;;;9.32;59.71;98230.55;106182;1258;61683;-82
2023/12/23 17:27:03;;;;;;;;;;;;;;;9.26;60.01;98233.09;106167;1259;61114;-82
2023/12/23 17:29:40;;;;;;;;;;;;;;;9.28;59.65;98237.60;106201;1254;74716;-82